Time;durP1;ratioP1;P1;durP2;ratioP2;P2;SDS_P1;SDS_P2;PMS_P1;PMS_P2;Temp;Humidity;BMP_temperature;BMP_pressure;BME280_temperature;BME280_humidity;BME280_pressure;Samples;Min_cycle;Max_cycle;Signal;HPM_P1;HPM_P2
2020/12/20 00:00:50;;;;;;;0.80;0.80;;;9.20;93.40;;;;;;5112838;28;20044;-69
2020/12/20 00:03:17;;;;;;;3.15;0.98;;;9.20;93.40;;;;;;5112758;28;20088;-69
2020/12/20 00:05:42;;;;;;;1.40;0.98;;;9.20;93.40;;;;;;5094705;28;20036;-69
2020/12/20 00:08:08;;;;;;;1.50;0.70;;;9.20;93.50;;;;;;5112173;28;20032;-70
2020/12/20 00:10:34;;;;;;;1.30;1.02;;;9.20;93.40;;;;;;5115092;28;20036;-70
2020/12/20 00:12:59;;;;;;;1.48;0.90;;;9.20;93.50;;;;;;5115896;28;20465;-70
2020/12/20 00:15:26;;;;;;;1.50;0.90;;;9.20;93.40;;;;;;5115813;28;20374;-69
2020/12/20 00:17:52;;;;;;;1.17;0.98;;;9.20;93.40;;;;;;5116108;28;20042;-70
2020/12/20 00:20:19;;;;;;;1.25;0.80;;;9.20;93.40;;;;;;5115657;28;20485;-70
2020/12/20 00:22:45;;;;;;;2.13;0.90;;;9.20;93.50;;;;;;5116191;28;20062;-70
2020/12/20 00:25:12;;;;;;;1.27;0.80;;;9.20;93.50;;;;;;5116218;28;20095;-70
2020/12/20 00:27:38;;;;;;;1.35;0.80;;;9.20;93.50;;;;;;5116268;28;20173;-70
2020/12/20 00:30:06;;;;;;;1.30;0.77;;;9.20;93.50;;;;;;5116075;28;20131;-70
2020/12/20 00:32:32;;;;;;;0.95;0.80;;;9.20;93.50;;;;;;5116188;28;20501;-69
2020/12/20 00:34:58;;;;;;;1.15;0.70;;;9.10;93.50;;;;;;5116147;28;20070;-69
2020/12/20 00:37:24;;;;;;;1.13;0.70;;;9.20;93.50;;;;;;5116051;28;20088;-69
2020/12/20 00:39:49;;;;;;;0.90;0.80;;;9.20;93.50;;;;;;5115430;28;20043;-70
2020/12/20 00:42:15;;;;;;;0.88;0.70;;;9.20;93.40;;;;;;5097938;28;20061;-69
2020/12/20 00:44:41;;;;;;;1.65;0.80;;;9.30;93.50;;;;;;5115906;28;20062;-69
2020/12/20 00:47:07;;;;;;;1.55;0.90;;;9.20;93.50;;;;;;5115373;28;20039;-70
2020/12/20 00:49:33;;;;;;;1.98;0.90;;;9.20;93.40;;;;;;5115803;28;20047;-69
2020/12/20 00:52:02;;;;;;;1.63;0.95;;;9.20;93.40;;;;;;5097441;28;20092;-70
2020/12/20 00:54:28;;;;;;;1.30;1.00;;;9.20;93.50;;;;;;5115777;28;20044;-70
2020/12/20 00:56:54;;;;;;;1.75;1.08;;;9.30;93.50;;;;;;5115045;28;20047;-70
2020/12/20 00:59:20;;;;;;;0.90;0.70;;;9.30;93.40;;;;;;5115071;28;20543;-70
2020/12/20 01:01:46;;;;;;;1.13;0.77;;;9.30;93.40;;;;;;5115468;28;20497;-70
2020/12/20 01:04:12;;;;;;;1.27;1.02;;;9.20;93.40;;;;;;5096704;28;20052;-70
2020/12/20 01:06:38;;;;;;;1.48;0.82;;;9.20;93.50;;;;;;5115022;28;20043;-70
2020/12/20 01:09:05;;;;;;;1.77;0.90;;;9.30;93.50;;;;;;5114832;28;20108;-70
2020/12/20 01:11:31;;;;;;;1.20;0.80;;;9.30;93.50;;;;;;5115001;28;20040;-70
2020/12/20 01:13:57;;;;;;;1.77;0.90;;;9.20;93.40;;;;;;5115326;28;20035;-70
2020/12/20 01:16:25;;;;;;;0.98;0.63;;;9.20;93.40;;;;;;5114880;28;20058;-70
2020/12/20 01:18:52;;;;;;;1.42;0.73;;;9.20;93.40;;;;;;5115290;28;20481;-70
2020/12/20 01:21:18;;;;;;;1.23;0.70;;;9.20;93.40;;;;;;5095758;28;20089;-70
2020/12/20 01:23:44;;;;;;;1.98;0.70;;;9.30;93.50;;;;;;5114856;28;20040;-70
2020/12/20 01:26:10;;;;;;;0.95;0.77;;;9.20;93.40;;;;;;5096322;28;20508;-70
2020/12/20 01:28:36;;;;;;;0.85;0.70;;;9.20;93.40;;;;;;5114812;28;20040;-70
2020/12/20 01:31:06;;;;;;;1.08;0.75;;;9.20;93.50;;;;;;5114930;28;20032;-70
2020/12/20 01:33:35;;;;;;;1.60;0.85;;;9.10;93.50;;;;;;5114446;28;20046;-70
2020/12/20 01:36:09;;;;;;;1.35;0.88;;;9.10;93.80;;;;;;5114477;28;20505;-70
2020/12/20 01:38:35;;;;;;;1.10;0.60;;;9.10;93.50;;;;;;5114583;28;20039;-70
2020/12/20 01:41:01;;;;;;;1.45;0.73;;;9.20;93.60;;;;;;5114338;28;20043;-70
2020/12/20 01:43:40;;;;;;;1.55;0.70;;;9.20;93.60;;;;;;5114822;28;20470;-70
2020/12/20 01:46:09;;;;;;;0.90;0.80;;;9.10;93.50;;;;;;5096498;28;20040;-70
2020/12/20 01:48:35;;;;;;;1.42;0.77;;;9.20;93.60;;;;;;5114483;28;20493;-70
2020/12/20 01:51:01;;;;;;;1.48;0.90;;;9.20;93.60;;;;;;5114050;28;20039;-70
2020/12/20 01:53:27;;;;;;;1.63;0.70;;;9.20;93.50;;;;;;5114126;28;20028;-70
2020/12/20 01:55:59;;;;;;;1.13;0.90;;;9.20;93.40;;;;;;5114555;28;20481;-70
2020/12/20 01:58:26;;;;;;;1.40;0.95;;;9.20;93.40;;;;;;5094308;28;20047;-70
2020/12/20 02:00:52;;;;;;;1.05;0.70;;;9.20;93.40;;;;;;5114416;28;20036;-70
2020/12/20 02:03:18;;;;;;;1.23;0.80;;;9.20;93.40;;;;;;5114568;28;20055;-70
2020/12/20 02:05:44;;;;;;;3.80;0.80;;;9.20;93.50;;;;;;5113964;28;20374;-70
2020/12/20 02:08:11;;;;;;;1.60;0.77;;;9.20;93.40;;;;;;5114049;28;20031;-70
2020/12/20 02:10:37;;;;;;;1.27;0.77;;;9.20;93.40;;;;;;5113913;28;20485;-70
2020/12/20 02:13:03;;;;;;;2.05;0.70;;;9.20;93.40;;;;;;5114325;28;20397;-70
2020/12/20 02:15:29;;;;;;;1.65;0.90;;;9.20;93.40;;;;;;5096197;28;20058;-70
2020/12/20 02:17:55;;;;;;;0.80;0.60;;;9.20;93.40;;;;;;5093677;28;20393;-70
2020/12/20 02:20:21;;;;;;;0.88;0.65;;;9.20;93.40;;;;;;5095563;28;20039;-70
2020/12/20 02:22:46;;;;;;;1.60;0.90;;;9.20;93.50;;;;;;5095575;28;20129;-70
2020/12/20 02:25:12;;;;;;;1.23;0.80;;;9.20;93.50;;;;;;5114263;28;20377;-70
2020/12/20 02:27:38;;;;;;;1.35;1.02;;;9.20;93.50;;;;;;5114287;28;20031;-70
2020/12/20 02:30:04;;;;;;;1.25;0.80;;;9.20;93.50;;;;;;5114221;28;20126;-70
2020/12/20 02:32:30;;;;;;;1.45;0.73;;;9.20;93.40;;;;;;5113573;28;20044;-70
2020/12/20 02:34:56;;;;;;;0.70;0.57;;;9.20;93.40;;;;;;5113906;28;20377;-70
2020/12/20 02:37:22;;;;;;;1.13;0.75;;;9.10;93.50;;;;;;5113684;28;20043;-70
2020/12/20 02:39:47;;;;;;;1.27;0.75;;;9.00;93.50;;;;;;5113624;28;20088;-70
2020/12/20 02:42:13;;;;;;;1.20;0.80;;;9.10;93.60;;;;;;5095541;28;20040;-70
2020/12/20 02:44:39;;;;;;;1.52;0.90;;;9.10;93.60;;;;;;5113525;28;20066;-70
2020/12/20 02:47:05;;;;;;;1.30;0.85;;;9.00;93.60;;;;;;5113596;28;20039;-70
2020/12/20 02:49:31;;;;;;;1.10;0.85;;;9.00;93.60;;;;;;5113324;28;20133;-70
2020/12/20 02:51:56;;;;;;;1.77;0.77;;;9.00;93.60;;;;;;5113346;28;20482;-70
2020/12/20 02:54:22;;;;;;;2.08;0.98;;;9.00;93.60;;;;;;5113310;28;20071;-70
2020/12/20 02:56:48;;;;;;;0.82;0.70;;;9.00;93.60;;;;;;5113784;28;20449;-70
2020/12/20 02:59:13;;;;;;;1.95;0.90;;;9.10;93.60;;;;;;5113255;28;20035;-70
2020/12/20 03:01:39;;;;;;;1.38;0.90;;;9.10;93.60;;;;;;5113385;28;20046;-70
2020/12/20 03:04:05;;;;;;;0.95;0.70;;;9.10;93.60;;;;;;5113588;28;20041;-70
2020/12/20 03:06:30;;;;;;;0.70;0.68;;;9.10;93.50;;;;;;5113110;28;20035;-70
2020/12/20 03:08:56;;;;;;;0.88;0.57;;;9.10;93.50;;;;;;5112920;28;20031;-70
2020/12/20 03:11:22;;;;;;;1.55;0.90;;;9.10;93.50;;;;;;5094535;28;20500;-70
2020/12/20 03:13:48;;;;;;;0.95;0.73;;;9.10;93.50;;;;;;5112930;28;20028;-69
2020/12/20 03:16:14;;;;;;;1.25;0.82;;;9.10;93.50;;;;;;5113061;28;20103;-68
2020/12/20 03:18:40;;;;;;;1.05;0.60;;;9.10;93.50;;;;;;5112757;28;20638;-69
2020/12/20 03:21:06;;;;;;;1.55;0.80;;;9.20;93.50;;;;;;5094574;28;20420;-68
2020/12/20 03:23:31;;;;;;;1.25;0.70;;;9.10;93.50;;;;;;5093274;28;20036;-68
2020/12/20 03:25:57;;;;;;;1.02;0.77;;;9.10;93.50;;;;;;5112825;28;20092;-69
2020/12/20 03:28:23;;;;;;;2.17;0.82;;;9.10;93.40;;;;;;5112753;28;20039;-69
2020/12/20 03:30:48;;;;;;;1.23;0.77;;;9.20;93.50;;;;;;5112796;28;20047;-69
2020/12/20 03:33:14;;;;;;;1.45;0.77;;;9.20;93.50;;;;;;5113220;28;20042;-69
2020/12/20 03:35:40;;;;;;;1.50;0.80;;;9.10;93.40;;;;;;5113286;28;20042;-69
2020/12/20 03:38:05;;;;;;;1.52;0.77;;;9.10;93.40;;;;;;5112983;28;20028;-69
2020/12/20 03:40:31;;;;;;;1.33;0.82;;;9.10;93.40;;;;;;5094311;28;20047;-69
2020/12/20 03:42:57;;;;;;;0.80;0.63;;;9.20;93.50;;;;;;5113100;28;20148;-69
2020/12/20 03:45:23;;;;;;;2.35;1.00;;;9.20;93.50;;;;;;5112185;28;20434;-69
2020/12/20 03:47:49;;;;;;;1.15;0.60;;;9.20;93.40;;;;;;5112755;28;20039;-69
2020/12/20 03:50:15;;;;;;;0.98;0.85;;;9.20;93.40;;;;;;5113030;28;20067;-69
2020/12/20 03:52:41;;;;;;;2.90;0.77;;;9.20;93.40;;;;;;5113117;28;20123;-69
2020/12/20 03:55:06;;;;;;;2.45;0.80;;;9.20;93.40;;;;;;5112548;28;20119;-69
2020/12/20 03:57:32;;;;;;;0.98;0.88;;;9.20;93.40;;;;;;5112298;28;20040;-69
2020/12/20 03:59:58;;;;;;;2.22;0.80;;;9.20;93.70;;;;;;5112703;28;20035;-69
2020/12/20 04:02:24;;;;;;;0.90;0.77;;;9.20;93.40;;;;;;5112968;28;20043;-69
2020/12/20 04:04:50;;;;;;;1.95;0.90;;;9.20;93.40;;;;;;5112683;28;20131;-69
2020/12/20 04:07:16;;;;;;;1.25;0.80;;;9.20;93.40;;;;;;5094317;28;20043;-69
2020/12/20 04:09:42;;;;;;;2.25;0.90;;;9.20;93.40;;;;;;5112049;28;20154;-69
2020/12/20 04:12:08;;;;;;;1.45;0.73;;;9.20;93.40;;;;;;5112674;28;20027;-69
2020/12/20 04:14:34;;;;;;;1.17;0.80;;;9.20;93.40;;;;;;5094599;28;20539;-69
2020/12/20 04:17:00;;;;;;;1.40;0.73;;;9.20;93.40;;;;;;5112007;28;20043;-69
2020/12/20 04:19:25;;;;;;;0.50;0.50;;;9.10;93.40;;;;;;5094394;28;20062;-69
2020/12/20 04:21:51;;;;;;;1.67;0.70;;;9.20;93.50;;;;;;5112134;28;20465;-69
2020/12/20 04:24:17;;;;;;;1.08;0.75;;;9.20;93.40;;;;;;5112176;28;20489;-69
2020/12/20 04:26:43;;;;;;;0.57;0.50;;;9.20;93.50;;;;;;5111904;28;20042;-69
2020/12/20 04:29:10;;;;;;;1.88;0.60;;;9.10;93.50;;;;;;5112448;28;20178;-69
2020/12/20 04:31:36;;;;;;;1.98;0.75;;;9.10;93.50;;;;;;5093888;28;20040;-69
2020/12/20 04:34:02;;;;;;;0.73;0.50;;;9.10;93.50;;;;;;5112018;28;20541;-69
2020/12/20 04:36:28;;;;;;;1.80;0.60;;;9.10;93.50;;;;;;5112479;28;20389;-69
2020/12/20 04:38:55;;;;;;;0.57;0.52;;;9.10;93.50;;;;;;5112290;28;20052;-70
2020/12/20 04:41:22;;;;;;;1.45;0.70;;;9.10;93.50;;;;;;5112197;28;20047;-69
2020/12/20 04:43:48;;;;;;;0.52;0.50;;;9.10;93.50;;;;;;5111801;28;20130;-69
2020/12/20 04:46:17;;;;;;;1.20;0.80;;;9.10;93.50;;;;;;5112165;28;20028;-69
2020/12/20 04:48:44;;;;;;;1.10;0.68;;;9.20;93.50;;;;;;5111734;28;20397;-69
2020/12/20 04:51:11;;;;;;;0.57;0.47;;;9.00;93.40;;;;;;5111748;28;20043;-70
2020/12/20 04:53:37;;;;;;;1.08;0.57;;;9.10;93.50;;;;;;5112176;28;20043;-69
2020/12/20 04:56:08;;;;;;;1.42;0.70;;;9.10;93.50;;;;;;5112025;28;20451;-70
2020/12/20 04:58:35;;;;;;;0.70;0.57;;;9.10;93.50;;;;;;5115309;28;20036;-70
2020/12/20 05:01:02;;;;;;;2.75;1.13;;;9.10;93.50;;;;;;5096814;28;20504;-70
2020/12/20 05:03:28;;;;;;;1.13;0.60;;;9.10;93.50;;;;;;5115778;28;20040;-70
2020/12/20 05:05:54;;;;;;;1.75;0.70;;;9.10;93.50;;;;;;5115154;28;20035;-70
2020/12/20 05:08:22;;;;;;;0.60;0.60;;;9.10;93.50;;;;;;5096991;28;20931;-70
2020/12/20 05:10:49;;;;;;;0.75;0.65;;;9.10;93.50;;;;;;5114980;28;20040;-70
2020/12/20 05:13:15;;;;;;;3.08;0.70;;;9.10;93.50;;;;;;5115017;28;20031;-69
2020/12/20 05:15:41;;;;;;;1.83;0.68;;;9.20;93.50;;;;;;5115007;28;20039;-70
2020/12/20 05:18:08;;;;;;;2.78;0.73;;;9.20;93.40;;;;;;5115244;28;20401;-70
2020/12/20 05:20:37;;;;;;;0.90;0.47;;;9.20;93.50;;;;;;5115161;28;20497;-70
2020/12/20 05:23:04;;;;;;;1.40;0.60;;;9.20;93.50;;;;;;5114835;28;20050;-70
2020/12/20 05:25:34;;;;;;;0.57;0.47;;;9.10;93.40;;;;;;5115038;28;20481;-70
2020/12/20 05:28:18;;;;;;;0.93;0.68;;;9.10;93.50;;;;;;5111882;28;20043;-69
2020/12/20 05:30:45;;;;;;;0.40;0.40;;;9.20;93.50;;;;;;5115081;28;20035;-69
2020/12/20 05:33:25;;;;;;;1.23;0.70;;;9.10;93.40;;;;;;5115035;28;20397;-69
2020/12/20 05:35:59;;;;;;;3.15;0.47;;;9.20;93.50;;;;;;5115317;28;20457;-69
2020/12/20 05:38:25;;;;;;;1.58;0.63;;;9.10;93.50;;;;;;5114990;28;20039;-69
2020/12/20 05:40:51;;;;;;;1.67;0.70;;;9.10;93.50;;;;;;5114915;28;20400;-69
2020/12/20 05:43:23;;;;;;;0.47;0.47;;;9.00;93.40;;;;;;5115112;28;20036;-70
2020/12/20 05:45:48;;;;;;;;;;;9.10;93.50;;;;;;5115498;28;20123;-69
2020/12/20 05:48:17;;;;;;;0.47;0.40;;;9.10;93.40;;;;;;5114629;28;19953;-69
2020/12/20 05:51:06;;;;;;;0.65;0.40;;;9.10;93.40;;;;;;5096778;28;20122;-70
2020/12/20 05:53:34;;;;;;;1.25;0.50;;;9.00;93.50;;;;;;5114537;28;20039;-69
2020/12/20 05:56:03;;;;;;;1.30;0.63;;;9.10;93.50;;;;;;5114447;28;20043;-69
2020/12/20 05:58:31;;;;;;;1.20;0.40;;;9.00;93.50;;;;;;5115027;28;20035;-70
2020/12/20 06:00:58;;;;;;;1.40;0.40;;;9.00;93.50;;;;;;5114707;28;20239;-70
2020/12/20 06:03:24;;;;;;;0.90;0.40;;;9.00;93.50;;;;;;5095402;28;20474;-69
2020/12/20 06:05:50;;;;;;;0.88;0.60;;;9.00;93.60;;;;;;5114288;28;20063;-69
2020/12/20 06:08:19;;;;;;;0.73;0.40;;;9.00;93.60;;;;;;5114158;28;20127;-70
2020/12/20 06:10:47;;;;;;;0.88;0.50;;;9.00;93.60;;;;;;5114340;28;20082;-69
2020/12/20 06:13:17;;;;;;;0.43;0.40;;;9.00;93.60;;;;;;5114339;28;20040;-69
2020/12/20 06:15:46;;;;;;;1.27;0.60;;;9.00;93.60;;;;;;5114078;28;20055;-69
2020/12/20 06:18:14;;;;;;;0.35;0.35;;;9.00;93.60;;;;;;5114197;28;20046;-69
2020/12/20 06:20:50;;;;;;;1.48;0.60;;;9.00;93.60;;;;;;5114144;28;20040;-69
2020/12/20 06:23:20;;;;;;;0.77;0.50;;;9.00;93.60;;;;;;5114186;28;20039;-69
2020/12/20 06:25:47;;;;;;;0.63;0.40;;;9.00;93.60;;;;;;5114153;28;20039;-69
2020/12/20 06:28:17;;;;;;;1.55;0.57;;;9.00;93.60;;;;;;5114480;28;20051;-69
2020/12/20 06:30:44;;;;;;;1.45;0.70;;;8.90;93.60;;;;;;5114191;28;20508;-69
2020/12/20 06:33:19;;;;;;;1.52;0.60;;;9.00;93.60;;;;;;5095080;28;20470;-69
2020/12/20 06:35:50;;;;;;;0.70;0.50;;;9.00;93.60;;;;;;5113903;28;20076;-69
2020/12/20 06:38:20;;;;;;;0.38;0.35;;;9.00;93.60;;;;;;5113976;28;20508;-69
2020/12/20 06:40:46;;;;;;;0.90;0.50;;;8.90;93.50;;;;;;5095695;28;20097;-69
2020/12/20 06:43:11;;;;;;;0.55;0.50;;;8.90;93.50;;;;;;5113967;28;20524;-69
2020/12/20 06:45:46;;;;;;;0.52;0.45;;;8.90;93.60;;;;;;5114016;28;20512;-70
2020/12/20 06:48:13;;;;;;;0.75;0.50;;;8.90;93.60;;;;;;5114369;28;20047;-70
2020/12/20 06:50:42;;;;;;;0.75;0.60;;;8.90;93.70;;;;;;5113972;28;20421;-70
2020/12/20 06:53:09;;;;;;;1.35;0.70;;;8.90;93.60;;;;;;5079442;28;20377;-70
2020/12/20 06:55:35;;;;;;;1.40;0.60;;;8.90;93.60;;;;;;5113811;28;20400;-69
2020/12/20 06:58:21;;;;;;;1.95;0.80;;;8.90;93.60;;;;;;5113959;28;20044;-69
2020/12/20 07:00:50;;;;;;;3.78;0.98;;;9.00;93.60;;;;;;5097184;28;20096;-69
2020/12/20 07:03:40;;;;;;;1.27;0.57;;;9.00;93.50;;;;;;5114077;28;20346;-69
2020/12/20 07:06:13;;;;;;;0.60;0.30;;;9.00;93.50;;;;;;5096238;28;20545;-70
2020/12/20 07:08:39;;;;;;;1.08;0.50;;;9.00;93.50;;;;;;5095075;28;20046;-68
2020/12/20 07:11:16;;;;;;;0.80;0.47;;;8.90;93.50;;;;;;5095232;28;20378;-69
2020/12/20 07:13:44;;;;;;;1.92;0.60;;;8.90;93.50;;;;;;5093043;28;20047;-69
2020/12/20 07:16:12;;;;;;;1.23;0.63;;;8.80;93.50;;;;;;5113621;28;20046;-69
2020/12/20 07:18:41;;;;;;;1.27;0.70;;;8.90;93.50;;;;;;5113232;28;20060;-69
2020/12/20 07:21:10;;;;;;;1.23;0.70;;;8.90;93.50;;;;;;5095570;28;20040;-70
2020/12/20 07:23:39;;;;;;;0.57;0.57;;;8.90;93.50;;;;;;5093850;28;20036;-70
2020/12/20 07:26:05;;;;;;;0.90;0.60;;;8.90;93.50;;;;;;5113006;28;20050;-70
2020/12/20 07:28:30;;;;;;;0.75;0.40;;;8.90;93.50;;;;;;5112912;28;20040;-69
2020/12/20 07:30:56;;;;;;;0.90;0.55;;;8.90;93.50;;;;;;5113058;28;20088;-69
2020/12/20 07:33:22;;;;;;;0.88;0.68;;;8.80;93.50;;;;;;5113035;28;20503;-70
2020/12/20 07:35:48;;;;;;;1.38;0.70;;;8.80;93.50;;;;;;5113058;28;20078;-70
2020/12/20 07:38:14;;;;;;;1.27;0.73;;;8.80;93.60;;;;;;5112922;28;20031;-69
2020/12/20 07:40:40;;;;;;;1.15;0.45;;;8.80;93.60;;;;;;5112785;28;20521;-69
2020/12/20 07:43:06;;;;;;;0.98;0.40;;;8.80;93.50;;;;;;5095019;28;20138;-70
2020/12/20 07:45:33;;;;;;;0.40;0.40;;;8.90;93.60;;;;;;5113334;28;20043;-69
2020/12/20 07:47:58;;;;;;;1.45;0.90;;;8.80;93.50;;;;;;5113166;28;20042;-70
2020/12/20 07:50:25;;;;;;;1.60;0.75;;;8.80;93.60;;;;;;5112805;28;20118;-70
2020/12/20 07:52:51;;;;;;;0.77;0.60;;;8.80;93.60;;;;;;5112711;28;20035;-69
2020/12/20 07:55:16;;;;;;;1.00;0.60;;;8.80;93.60;;;;;;5112694;28;20554;-69
2020/12/20 07:57:46;;;;;;;1.20;0.50;;;8.80;93.50;;;;;;5094229;28;20035;-70
2020/12/20 08:00:12;;;;;;;1.05;0.47;;;8.80;93.50;;;;;;5113073;28;20051;-70
2020/12/20 08:02:38;;;;;;;0.65;0.60;;;8.80;93.60;;;;;;5112446;28;20058;-69
2020/12/20 08:05:07;;;;;;;0.80;0.50;;;8.80;93.60;;;;;;5112547;28;20140;-69
2020/12/20 08:07:32;;;;;;;2.25;0.52;;;8.80;93.60;;;;;;5094287;28;20084;-69
2020/12/20 08:09:58;;;;;;;0.57;0.50;;;8.70;93.60;;;;;;5112391;28;20439;-69
2020/12/20 08:12:26;;;;;;;2.00;0.60;;;8.80;93.60;;;;;;5094242;28;20028;-69
2020/12/20 08:15:08;;;;;;;0.60;0.45;;;8.80;93.60;;;;;;5112274;28;20040;-69
2020/12/20 08:17:35;;;;;;;1.75;0.70;;;8.90;93.60;;;;;;5092514;28;20044;-69
2020/12/20 08:20:04;;;;;;;1.48;0.70;;;8.90;93.60;;;;;;5112723;28;20062;-70
2020/12/20 08:22:32;;;;;;;0.82;0.60;;;8.90;93.50;;;;;;5112378;28;20508;-69
2020/12/20 08:25:06;;;;;;;0.52;0.47;;;8.90;93.50;;;;;;5112398;28;20150;-69
2020/12/20 08:27:32;;;;;;;1.20;0.50;;;8.90;93.50;;;;;;5094498;28;20127;-69
2020/12/20 08:29:59;;;;;;;1.73;0.70;;;8.90;93.50;;;;;;5112488;28;20135;-69
2020/12/20 08:32:37;;;;;;;1.15;0.60;;;8.90;93.40;;;;;;5114614;28;20047;-69
2020/12/20 08:35:22;;;;;;;2.13;0.75;;;9.00;93.50;;;;;;5097319;28;20047;-69
2020/12/20 08:37:58;;;;;;;1.33;0.68;;;9.00;93.40;;;;;;5115747;28;20040;-69
2020/12/20 08:40:27;;;;;;;0.65;0.60;;;9.10;93.40;;;;;;5115455;28;20040;-69
2020/12/20 08:42:58;;;;;;;2.13;0.73;;;9.10;93.30;;;;;;5115585;28;20031;-70
2020/12/20 08:45:25;;;;;;;1.52;0.70;;;9.10;93.30;;;;;;5115542;28;20035;-69
2020/12/20 08:47:51;;;;;;;1.40;0.63;;;9.10;93.30;;;;;;5115368;28;20051;-69
2020/12/20 08:50:25;;;;;;;1.02;0.60;;;9.20;93.30;;;;;;5115481;28;20044;-69
2020/12/20 08:53:00;;;;;;;1.27;0.55;;;9.20;93.30;;;;;;5115840;28;20028;-69
2020/12/20 08:55:26;;;;;;;0.65;0.50;;;9.20;93.30;;;;;;5079971;28;20039;-70
2020/12/20 08:58:01;;;;;;;1.60;0.70;;;9.20;93.30;;;;;;5115764;28;20560;-69
2020/12/20 09:00:27;;;;;;;3.53;0.90;;;9.20;93.30;;;;;;5115387;28;20043;-68
2020/12/20 09:02:57;;;;;;;1.95;0.88;;;9.20;93.30;;;;;;5114951;28;20039;-68
2020/12/20 09:05:26;;;;;;;4.00;0.80;;;9.30;93.30;;;;;;5115424;28;20088;-68
2020/12/20 09:07:53;;;;;;;2.47;0.80;;;9.30;93.20;;;;;;5115114;28;20035;-68
2020/12/20 09:10:23;;;;;;;0.77;0.60;;;9.30;93.20;;;;;;5114868;28;20451;-68
2020/12/20 09:12:51;;;;;;;2.05;0.70;;;9.40;93.20;;;;;;5114974;28;20039;-68
2020/12/20 09:15:19;;;;;;;0.90;0.70;;;9.40;93.20;;;;;;5114964;28;20122;-68
2020/12/20 09:17:48;;;;;;;2.28;0.77;;;9.40;93.20;;;;;;5114943;28;20342;-69
2020/12/20 09:20:16;;;;;;;3.42;0.98;;;9.40;93.20;;;;;;5114891;28;20039;-69
2020/12/20 09:22:46;;;;;;;1.92;0.82;;;9.40;93.20;;;;;;5096653;28;20070;-69
2020/12/20 09:25:14;;;;;;;2.67;0.95;;;9.40;93.10;;;;;;5114991;28;20047;-69
2020/12/20 09:27:51;;;;;;;2.60;0.60;;;9.40;93.10;;;;;;5096946;28;20046;-69
2020/12/20 09:30:27;;;;;;;2.13;0.93;;;9.50;93.10;;;;;;5095391;28;20448;-69
2020/12/20 09:32:53;;;;;;;2.75;1.15;;;9.50;93.10;;;;;;5114713;28;20035;-69
2020/12/20 09:35:18;;;;;;;1.50;0.73;;;9.50;93.20;;;;;;5115203;28;20119;-69
2020/12/20 09:37:44;;;;;;;1.73;0.80;;;9.50;93.10;;;;;;5114626;28;20080;-69
2020/12/20 09:40:10;;;;;;;1.67;1.00;;;9.50;93.10;;;;;;5114900;28;20043;-69
2020/12/20 09:42:42;;;;;;;1.58;0.77;;;9.50;93.10;;;;;;5114462;28;20092;-69
2020/12/20 09:45:09;;;;;;;1.67;0.52;;;9.50;93.10;;;;;;5114499;28;20046;-69
2020/12/20 09:47:38;;;;;;;2.38;0.60;;;9.50;93.10;;;;;;5114754;28;20047;-69
2020/12/20 09:50:05;;;;;;;2.92;0.88;;;9.50;93.10;;;;;;5114744;28;20092;-69
2020/12/20 09:52:31;;;;;;;2.33;0.60;;;9.50;93.40;;;;;;5114744;28;20036;-69
2020/12/20 09:54:57;;;;;;;1.13;0.80;;;9.60;93.10;;;;;;5114525;28;20039;-69
2020/12/20 09:57:23;;;;;;;3.83;0.95;;;9.60;93.10;;;;;;5114379;28;20035;-70
2020/12/20 09:59:48;;;;;;;0.77;0.55;;;9.60;93.10;;;;;;5114621;28;20401;-69
2020/12/20 10:02:14;;;;;;;2.83;0.95;;;9.70;93.10;;;;;;5114901;28;20393;-69
2020/12/20 10:04:40;;;;;;;1.27;0.63;;;9.70;93.10;;;;;;5114663;28;20429;-68
2020/12/20 10:07:05;;;;;;;1.90;0.82;;;9.70;93.10;;;;;;5114189;28;20048;-69
2020/12/20 10:09:31;;;;;;;3.42;1.00;;;9.70;93.10;;;;;;5095869;28;20050;-69
2020/12/20 10:11:57;;;;;;;2.50;1.05;;;9.70;93.10;;;;;;5114644;28;20042;-69
2020/12/20 10:14:22;;;;;;;1.75;0.88;;;9.80;93.00;;;;;;5114709;28;20429;-69
2020/12/20 10:16:52;;;;;;;2.42;0.90;;;9.80;93.00;;;;;;5114246;28;20032;-69
2020/12/20 10:19:18;;;;;;;3.33;0.80;;;9.80;93.00;;;;;;5114508;28;20046;-69
2020/12/20 10:21:49;;;;;;;1.23;0.70;;;9.80;93.00;;;;;;5114487;28;20052;-69
2020/12/20 10:24:15;;;;;;;;;;;9.80;92.90;;;;;;5115200;28;20500;-69
2020/12/20 10:26:44;;;;;;;2.95;0.57;;;9.90;92.90;;;;;;5114123;28;19947;-69
2020/12/20 10:29:11;;;;;;;3.47;0.70;;;9.90;92.90;;;;;;5113927;28;20043;-69
2020/12/20 10:31:37;;;;;;;3.10;0.70;;;9.80;92.90;;;;;;5113878;28;20042;-69
2020/12/20 10:34:02;;;;;;;2.00;0.63;;;9.90;92.90;;;;;;5114217;28;20031;-69
2020/12/20 10:36:28;;;;;;;2.90;0.65;;;9.90;92.90;;;;;;5096040;28;20040;-69
2020/12/20 10:38:54;;;;;;;1.58;0.70;;;9.90;92.90;;;;;;5095587;28;20050;-69
2020/12/20 10:41:19;;;;;;;1.30;0.55;;;9.90;92.90;;;;;;5113851;28;20036;-69
2020/12/20 10:43:45;;;;;;;1.60;0.80;;;10.00;93.20;;;;;;5113634;28;20104;-69
2020/12/20 10:46:12;;;;;;;2.25;0.70;;;10.00;92.90;;;;;;5114104;28;20054;-69
2020/12/20 10:48:38;;;;;;;2.38;0.60;;;10.00;92.90;;;;;;5113868;28;20503;-69
2020/12/20 10:51:03;;;;;;;1.98;0.70;;;10.00;92.90;;;;;;5113620;28;20031;-69
2020/12/20 10:53:29;;;;;;;2.03;0.80;;;10.00;92.90;;;;;;5112735;28;20036;-70
2020/12/20 10:55:55;;;;;;;1.45;0.80;;;10.00;92.90;;;;;;5113338;28;20066;-69
2020/12/20 10:58:21;;;;;;;1.30;0.70;;;10.00;92.90;;;;;;5113495;28;20177;-69
2020/12/20 11:00:46;;;;;;;2.10;1.10;;;10.00;92.90;;;;;;5095268;28;20077;-69
2020/12/20 11:03:12;;;;;;;2.83;0.90;;;10.00;92.80;;;;;;5113291;28;20043;-69
2020/12/20 11:05:38;;;;;;;2.97;1.02;;;10.10;92.80;;;;;;5113589;28;20126;-69
2020/12/20 11:08:03;;;;;;;2.75;0.90;;;10.10;92.80;;;;;;5113451;28;20048;-69
2020/12/20 11:10:29;;;;;;;1.48;0.90;;;10.00;92.70;;;;;;5113302;28;20052;-69
2020/12/20 11:12:55;;;;;;;4.20;0.93;;;10.10;92.70;;;;;;5113859;28;20481;-69
2020/12/20 11:15:20;;;;;;;3.13;1.08;;;10.10;92.80;;;;;;5113385;28;20112;-69
2020/12/20 11:17:47;;;;;;;3.60;1.00;;;10.10;92.80;;;;;;5113634;28;20039;-69
2020/12/20 11:20:12;;;;;;;5.45;1.52;;;10.10;92.80;;;;;;5113098;28;20043;-69
2020/12/20 11:22:38;;;;;;;2.35;0.95;;;10.10;92.70;;;;;;5113306;28;20447;-69
2020/12/20 11:25:04;;;;;;;2.60;0.93;;;10.10;92.70;;;;;;5113434;28;20039;-68
2020/12/20 11:27:30;;;;;;;2.10;1.20;;;10.10;92.70;;;;;;5094564;28;20048;-68
2020/12/20 11:29:55;;;;;;;3.15;1.05;;;10.20;92.70;;;;;;5113489;28;20044;-69
2020/12/20 11:32:21;;;;;;;2.83;0.93;;;10.20;92.70;;;;;;5113195;28;20043;-69
2020/12/20 11:34:47;;;;;;;2.88;1.00;;;10.30;92.70;;;;;;5112935;28;20051;-69
2020/12/20 11:37:12;;;;;;;2.60;1.10;;;10.30;92.60;;;;;;5112899;28;20039;-69
2020/12/20 11:39:38;;;;;;;5.00;1.00;;;10.40;92.60;;;;;;5112846;28;20043;-69
2020/12/20 11:42:04;;;;;;;3.08;1.20;;;10.30;92.50;;;;;;5113419;28;20474;-69
2020/12/20 11:44:29;;;;;;;3.38;1.30;;;10.40;92.50;;;;;;5113034;28;20088;-68
2020/12/20 11:46:55;;;;;;;3.03;1.30;;;10.40;92.50;;;;;;5112665;28;20036;-69
2020/12/20 11:49:21;;;;;;;7.63;1.75;;;10.40;92.50;;;;;;5112790;28;20044;-69
2020/12/20 11:51:47;;;;;;;2.92;1.60;;;10.50;92.50;;;;;;5112764;28;20031;-69
2020/12/20 11:54:12;;;;;;;3.97;1.58;;;10.60;92.40;;;;;;5094589;28;20133;-69
2020/12/20 11:56:38;;;;;;;3.88;1.63;;;10.60;92.30;;;;;;5113440;28;20039;-69
2020/12/20 11:59:04;;;;;;;3.05;1.45;;;10.60;92.20;;;;;;5112710;28;20094;-69
2020/12/20 12:01:30;;;;;;;4.20;1.65;;;10.70;92.20;;;;;;5094566;28;20040;-69
2020/12/20 12:03:56;;;;;;;4.47;1.55;;;10.70;92.10;;;;;;5112718;28;20052;-70
2020/12/20 12:06:22;;;;;;;5.60;1.38;;;10.70;92.20;;;;;;5114899;28;20066;-69
2020/12/20 12:08:48;;;;;;;3.58;1.63;;;10.80;92.30;;;;;;5116104;28;20066;-69
2020/12/20 12:11:18;;;;;;;3.13;1.40;;;10.90;92.30;;;;;;5116111;28;20047;-69
2020/12/20 12:13:44;;;;;;;4.93;1.50;;;11.00;92.20;;;;;;5116351;28;20485;-69
2020/12/20 12:16:10;;;;;;;4.13;1.67;;;11.00;92.10;;;;;;5116576;28;20043;-69
2020/12/20 12:18:36;;;;;;;7.70;1.60;;;11.10;92.10;;;;;;5115802;28;20040;-69
2020/12/20 12:21:01;;;;;;;2.35;1.40;;;11.30;92.00;;;;;;5080734;28;20126;-69
2020/12/20 12:23:27;;;;;;;4.40;1.33;;;11.30;91.90;;;;;;5098214;28;20042;-69
2020/12/20 12:25:54;;;;;;;3.30;1.67;;;11.30;91.90;;;;;;5116174;28;20070;-69
2020/12/20 12:28:20;;;;;;;3.15;1.50;;;11.30;91.90;;;;;;5116125;28;20142;-69
2020/12/20 12:30:46;;;;;;;2.83;1.30;;;11.20;91.80;;;;;;5115693;28;20047;-69
2020/12/20 12:33:12;;;;;;;3.25;1.40;;;11.20;91.90;;;;;;5116230;28;20047;-69
2020/12/20 12:35:37;;;;;;;3.95;1.50;;;11.20;91.90;;;;;;5115629;28;20039;-69
2020/12/20 12:38:03;;;;;;;7.72;1.95;;;11.20;92.00;;;;;;5116056;28;20031;-69
2020/12/20 12:40:29;;;;;;;4.63;1.50;;;11.00;92.00;;;;;;5115569;28;20413;-69
2020/12/20 12:42:54;;;;;;;3.20;1.40;;;10.90;92.00;;;;;;5116079;28;20043;-69
2020/12/20 12:45:21;;;;;;;1.65;1.10;;;10.90;92.10;;;;;;5115938;28;20089;-69
2020/12/20 12:47:47;;;;;;;2.10;1.23;;;11.00;92.20;;;;;;5115565;28;20050;-69
2020/12/20 12:50:12;;;;;;;2.55;1.42;;;11.00;92.10;;;;;;5116035;28;20409;-69
2020/12/20 12:52:38;;;;;;;4.38;1.05;;;11.00;92.10;;;;;;5115909;28;20085;-69
2020/12/20 12:55:04;;;;;;;2.63;1.05;;;11.00;92.00;;;;;;5097323;28;20043;-69